Thunder radar more information blitzortung!


Radar de pluja more information rain snow radar


Visita la nostra xarxa de llocs de meteo:

Template documentation
and downloads

And another site



No particular awareness of the weather is required.    There are no Weather-warnings

Pagina Historial Weather Underground text

Diari Resum Agost 28, 2017 Unitats:  Imperial    Mètric   Tant
« Previous Dia
SegĂźent Dia »
Diari Setmana Mensual Anual Personalitzada
  Maxima: Minima: Media:
Temperatura: TemperatureC °F 20.4 °F 28.6 °F
Punt de rosada: DewpointC °F 11.8 °F 17.6 °F
Humitat: Humidity % 23 % 53 %
Wind Speed: WindSpeedKMH mph 0.0 mph 6.5 mph
RĂ fegues de vent: WindSpeedGustKMH mph - -
Vent:- - SSE
Pression baro: PressurehPa in 1010.7 in -
Precipitacions: 0.0 in    
Historical Graphs
 
 
Dades de taula per Agost 28, 2017
Temps Temperatura Punt de rosada Pression baro Vent Wind Speed RĂ fegues de vent Humitat Rainfall Rate (Hourly)
TemperatureC °F DewpointC °F PressurehPa in Calm     Humidity % HourlyPrecipMM in
00:01 24.1 °F 17.3 °F 1013.8 in SW 4.2 mph 4.2 mph 66 % 0.0 in
00:06 24.0 °F 17.3 °F 1013.8 in SW 3.7 mph 3.7 mph 66 % 0.0 in
00:11 24.0 °F 17.5 °F 1012.8 in WSW 2.3 mph 2.3 mph 67 % 0.0 in
02:25 21.3 °F 15.8 °F 1013.8 in Calm     71 % 0.0 in
02:35 21.2 °F 15.7 °F 1013.8 in Calm   1.6 mph 71 % 0.0 in
02:45 21.1 °F 15.8 °F 1013.8 in Calm     72 % 0.0 in
02:55 21.1 °F 15.8 °F 1013.8 in Calm     72 % 0.0 in
03:05 21.0 °F 15.8 °F 1012.8 in Calm     72 % 0.0 in
03:15 20.8 °F 15.8 °F 1013.8 in Calm     73 % 0.0 in
03:25 20.7 °F 15.7 °F 1013.8 in Calm     73 % 0.0 in
03:35 20.4 °F 15.4 °F 1013.8 in WSW 1.6 mph 3.2 mph 73 % 0.0 in
03:45 20.4 °F 15.6 °F 1012.8 in Calm   3.2 mph 74 % 0.0 in
03:55 20.6 °F 15.8 °F 1012.8 in Calm   1.6 mph 74 % 0.0 in
04:05 20.9 °F 16.1 °F 1013.8 in North 3.2 mph 3.2 mph 74 % 0.0 in
04:15 21.2 °F 16.4 °F 1013.8 in NE 1.6 mph 4.8 mph 74 % 0.0 in
09:17 24.1 °F 17.1 °F 1013.8 in ENE 2.3 mph 2.3 mph 65 % 0.0 in
09:22 24.3 °F 17.3 °F 1013.8 in ENE 1.9 mph   65 % 0.0 in
09:27 24.5 °F 17.2 °F 1013.8 in North 3.7 mph 3.7 mph 64 % 0.0 in
09:32 24.9 °F 17.6 °F 1013.8 in NE 3.9 mph 3.9 mph 64 % 0.0 in
09:37 25.0 °F 17.2 °F 1013.8 in ENE 3.9 mph 3.9 mph 62 % 0.0 in
09:42 25.2 °F 17.4 °F 1013.8 in NE 3.7 mph 3.7 mph 62 % 0.0 in
09:47 25.6 °F 17.8 °F 1013.8 in West 5.6 mph 5.6 mph 62 % 0.0 in
09:52 25.6 °F 17.5 °F 1013.8 in SW 3.7 mph   61 % 0.0 in
09:57 25.9 °F 17.8 °F 1013.8 in NNE 1.9 mph   61 % 0.0 in
10:02 26.0 °F 17.9 °F 1013.8 in NE 2.3 mph 2.3 mph 61 % 0.0 in
10:07 26.1 °F 17.7 °F 1013.8 in SW 5.6 mph   60 % 0.0 in
10:12 26.5 °F 18.1 °F 1013.8 in SW 3.7 mph 3.7 mph 60 % 0.0 in
10:17 26.8 °F 18.4 °F 1013.8 in Calm     60 % 0.0 in
10:22 27.3 °F 18.3 °F 1013.8 in ESE 3.7 mph 3.7 mph 58 % 0.0 in
10:27 27.4 °F 18.1 °F 1013.8 in SSW 3.7 mph 3.7 mph 57 % 0.0 in
10:32 27.6 °F 18.6 °F 1013.8 in NNE 3.7 mph 3.7 mph 58 % 0.0 in
10:37 27.8 °F 18.5 °F 1013.8 in SW 7.4 mph 7.4 mph 57 % 0.0 in
10:42 28.2 °F 18.9 °F 1012.8 in SW 3.7 mph 3.7 mph 57 % 0.0 in
10:47 28.1 °F 18.5 °F 1012.8 in ENE 3.7 mph 3.7 mph 56 % 0.0 in
10:52 27.8 °F 18.2 °F 1012.8 in WNW 5.6 mph 5.6 mph 56 % 0.0 in
10:57 28.1 °F 18.2 °F 1013.8 in ESE 3.7 mph 3.9 mph 55 % 0.0 in
11:02 28.4 °F 18.8 °F 1013.8 in NNE 5.6 mph 5.6 mph 56 % 0.0 in
11:07 28.5 °F 18.6 °F 1013.8 in ENE 5.0 mph 5.0 mph 55 % 0.0 in
11:12 28.5 °F 18.3 °F 1013.8 in ESE 5.6 mph 5.6 mph 54 % 0.0 in
11:17 28.8 °F 18.6 °F 1013.8 in ESE 3.7 mph 3.7 mph 54 % 0.0 in
11:22 29.2 °F 18.6 °F 1013.8 in West 6.9 mph 6.9 mph 53 % 0.0 in
11:27 29.4 °F 18.8 °F 1013.8 in ESE 3.7 mph 3.7 mph 53 % 0.0 in
11:32 29.9 °F 19.0 °F 1013.8 in WSW 5.6 mph 5.6 mph 52 % 0.0 in
11:37 30.3 °F 19.1 °F 1013.8 in NW 3.2 mph   51 % 0.0 in
11:42 30.4 °F 18.8 °F 1013.8 in ENE 5.6 mph 5.6 mph 50 % 0.0 in
11:47 30.5 °F 18.9 °F 1013.8 in NNE 7.4 mph 7.4 mph 50 % 0.0 in
11:52 30.1 °F 18.6 °F 1013.8 in ENE 7.4 mph 7.4 mph 50 % 0.0 in
11:57 30.1 °F 18.6 °F 1013.8 in East 5.6 mph 5.6 mph 50 % 0.0 in
12:02 31.0 °F 19.1 °F 1013.8 in ENE 6.9 mph 6.9 mph 49 % 0.0 in
12:07 31.0 °F 18.7 °F 1013.8 in NNE 8.7 mph 8.7 mph 48 % 0.0 in
12:12 30.7 °F 18.1 °F 1013.8 in ESE 7.4 mph 7.4 mph 47 % 0.0 in
12:17 31.0 °F 18.4 °F 1013.8 in NE 13.0 mph 13.0 mph 47 % 0.0 in
12:22 30.9 °F 17.9 °F 1013.8 in NNE 9.3 mph 9.3 mph 46 % 0.0 in
12:27 31.2 °F 17.8 °F 1013.8 in NNE 9.3 mph 9.3 mph 45 % 0.0 in
12:32 31.6 °F 17.8 °F 1013.8 in SE 7.4 mph 7.4 mph 44 % 0.0 in
12:37 32.3 °F 18.8 °F 1013.8 in NW 3.7 mph 3.7 mph 45 % 0.0 in
12:42 32.8 °F 18.9 °F 1012.8 in ESE 3.7 mph 3.9 mph 44 % 0.0 in
12:47 32.9 °F 19.1 °F 1012.8 in NNE 4.7 mph 4.7 mph 44 % 0.0 in
12:57 33.2 °F 18.6 °F 1012.8 in SE 5.6 mph 5.6 mph 42 % 0.0 in
13:02 33.6 °F 18.9 °F 1012.8 in WNW 3.9 mph 3.9 mph 42 % 0.0 in
13:07 33.6 °F 18.9 °F 1012.8 in NW 5.6 mph 5.6 mph 42 % 0.0 in
13:12 33.8 °F 18.3 °F 1012.8 in East 7.4 mph 7.4 mph 40 % 0.0 in
13:18 33.7 °F 17.8 °F 1012.8 in South 6.4 mph 6.4 mph 39 % 0.0 in
13:22 34.6 °F 18.6 °F 1012.8 in SE 4.2 mph 4.2 mph 39 % 0.0 in
13:28 35.0 °F 18.1 °F 1011.7 in ENE 3.7 mph 3.7 mph 37 % 0.0 in
13:33 34.5 °F 17.3 °F 1011.7 in ESE 5.6 mph 5.6 mph 36 % 0.0 in
13:38 35.2 °F 18.3 °F 1011.7 in SW 5.6 mph 5.6 mph 37 % 0.0 in
13:43 34.8 °F 16.2 °F 1011.7 in NNE 7.4 mph 7.4 mph 33 % 0.0 in
13:48 34.7 °F 16.6 °F 1011.7 in SE 7.4 mph 7.4 mph 34 % 0.0 in
13:53 35.3 °F 14.6 °F 1011.7 in ESE 7.4 mph 7.4 mph 29 % 0.0 in
13:58 35.7 °F 15.9 °F 1012.8 in WSW 5.6 mph 5.6 mph 31 % 0.0 in
14:03 35.9 °F 13.4 °F 1012.8 in ESE 7.4 mph 7.4 mph 26 % 0.0 in
14:08 36.4 °F 14.4 °F 1012.8 in SSE 6.9 mph 6.9 mph 27 % 0.0 in
14:13 36.8 °F 14.7 °F 1011.7 in South 5.6 mph 5.6 mph 27 % 0.0 in
14:18 37.1 °F 15.0 °F 1011.7 in SW 7.4 mph 7.4 mph 27 % 0.0 in
14:23 36.6 °F 13.4 °F 1011.7 in South 5.8 mph 6.1 mph 25 % 0.0 in
14:28 36.1 °F 12.3 °F 1011.7 in East 9.3 mph 9.3 mph 24 % 0.0 in
14:33 36.3 °F 11.8 °F 1011.7 in East 7.4 mph 7.4 mph 23 % 0.0 in
14:38 36.6 °F 12.8 °F 1011.7 in ENE 6.9 mph 6.9 mph 24 % 0.0 in
14:48 35.6 °F 13.7 °F 1011.7 in East 9.3 mph 9.3 mph 27 % 0.0 in
14:53 35.6 °F 13.7 °F 1011.7 in ESE 16.7 mph 16.7 mph 27 % 0.0 in
14:58 35.3 °F 14.0 °F 1011.7 in East 18.5 mph 18.5 mph 28 % 0.0 in
15:03 35.2 °F 13.9 °F 1011.7 in East 13.0 mph 13.0 mph 28 % 0.0 in
15:08 35.1 °F 13.8 °F 1011.7 in ESE 13.0 mph 13.0 mph 28 % 0.0 in
15:13 35.0 °F 14.3 °F 1011.7 in East 9.5 mph 9.5 mph 29 % 0.0 in
15:18 34.8 °F 15.2 °F 1011.7 in NE 20.4 mph 20.4 mph 31 % 0.0 in
15:23 34.7 °F 15.1 °F 1011.7 in ENE 13.0 mph 13.0 mph 31 % 0.0 in
15:28 34.3 °F 16.2 °F 1011.7 in ENE 13.0 mph 13.0 mph 34 % 0.0 in
15:33 34.0 °F 17.3 °F 1011.7 in ESE 16.7 mph 16.7 mph 37 % 0.0 in
15:38 34.0 °F 17.7 °F 1011.7 in ESE 13.0 mph 13.0 mph 38 % 0.0 in
15:43 33.6 °F 17.7 °F 1011.7 in ENE 16.7 mph 16.7 mph 39 % 0.0 in
15:48 33.0 °F 17.6 °F 1011.7 in South 22.2 mph 22.2 mph 40 % 0.0 in
15:53 32.4 °F 18.2 °F 1011.7 in ESE 18.5 mph 18.5 mph 43 % 0.0 in
15:58 32.4 °F 18.2 °F 1011.7 in SE 18.5 mph 18.5 mph 43 % 0.0 in
16:03 31.9 °F 18.5 °F 1011.7 in East 14.0 mph 14.0 mph 45 % 0.0 in
16:08 31.8 °F 18.4 °F 1011.7 in ESE 20.4 mph 20.4 mph 45 % 0.0 in
16:13 31.2 °F 18.6 °F 1011.7 in ENE 18.5 mph 18.5 mph 47 % 0.0 in
16:18 31.0 °F 18.7 °F 1011.7 in East 20.4 mph 20.4 mph 48 % 0.0 in
16:23 30.9 °F 18.9 °F 1011.7 in ESE 12.2 mph 12.2 mph 49 % 0.0 in
16:28 30.9 °F 19.3 °F 1011.7 in ESE 9.7 mph 9.7 mph 50 % 0.0 in
16:33 30.7 °F 19.1 °F 1011.7 in ESE 11.1 mph 13.0 mph 50 % 0.0 in
16:38 30.6 °F 19.0 °F 1011.7 in East 20.4 mph 20.4 mph 50 % 0.0 in
16:43 30.3 °F 18.7 °F 1011.7 in ESE 9.7 mph 9.7 mph 50 % 0.0 in
16:48 30.2 °F 18.6 °F 1011.7 in East 14.8 mph 14.8 mph 50 % 0.0 in
16:53 30.1 °F 18.8 °F 1011.7 in SE 9.3 mph 10.0 mph 51 % 0.0 in
16:58 30.0 °F 18.8 °F 1011.7 in ENE 9.3 mph 9.5 mph 51 % 0.0 in
17:03 30.5 °F 18.9 °F 1011.7 in East 12.2 mph 12.2 mph 50 % 0.0 in
17:08 30.5 °F 18.9 °F 1011.7 in SE 20.1 mph 20.1 mph 50 % 0.0 in
17:13 30.0 °F 18.4 °F 1010.7 in NE 29.6 mph 29.6 mph 50 % 0.0 in
17:18 29.7 °F 18.5 °F 1010.7 in ENE 12.2 mph 12.2 mph 51 % 0.0 in
17:23 29.9 °F 18.7 °F 1010.7 in North 9.3 mph 9.3 mph 51 % 0.0 in
17:28 29.6 °F 18.4 °F 1011.7 in SE 16.7 mph 16.7 mph 51 % 0.0 in
17:33 29.9 °F 18.7 °F 1011.7 in East 9.7 mph 9.7 mph 51 % 0.0 in
17:38 30.0 °F 18.8 °F 1011.7 in ESE 14.8 mph 14.8 mph 51 % 0.0 in
17:43 29.9 °F 18.7 °F 1011.7 in ENE 13.0 mph 13.0 mph 51 % 0.0 in
17:48 30.0 °F 18.8 °F 1011.7 in SSE 13.0 mph 13.0 mph 51 % 0.0 in
17:53 30.1 °F 19.2 °F 1011.7 in ESE 9.3 mph 9.3 mph 52 % 0.0 in
17:58 29.7 °F 18.8 °F 1011.7 in NW 11.1 mph 11.1 mph 52 % 0.0 in
18:03 29.5 °F 18.9 °F 1011.7 in WNW 5.6 mph 5.6 mph 53 % 0.0 in
18:08 29.6 °F 19.0 °F 1011.7 in NE 5.6 mph 5.6 mph 53 % 0.0 in
18:13 29.9 °F 19.3 °F 1011.7 in WSW 3.7 mph 3.7 mph 53 % 0.0 in
18:18 30.1 °F 19.4 °F 1011.7 in SW 5.6 mph 5.6 mph 53 % 0.0 in
18:23 30.1 °F 19.4 °F 1011.7 in SW 11.1 mph 11.1 mph 53 % 0.0 in
18:28 29.8 °F 19.2 °F 1011.7 in WSW 5.6 mph 5.8 mph 53 % 0.0 in
18:33 29.3 °F 18.4 °F 1011.7 in SSW 14.8 mph 14.8 mph 52 % 0.0 in
18:38 29.1 °F 18.2 °F 1011.7 in SW 11.1 mph 11.1 mph 52 % 0.0 in
18:45 28.7 °F 17.9 °F 1010.7 in SW 11.1 mph 11.1 mph 52 % 0.0 in
18:48 28.6 °F 17.8 °F 1010.7 in South 11.1 mph 11.1 mph 52 % 0.0 in
18:53 28.3 °F 17.8 °F 1010.7 in WSW 9.7 mph 9.7 mph 53 % 0.0 in
18:58 28.2 °F 17.7 °F 1011.7 in WSW 6.4 mph 6.4 mph 53 % 0.0 in
19:03 28.1 °F 17.6 °F 1011.7 in SW 7.4 mph 7.4 mph 53 % 0.0 in
19:08 28.0 °F 17.5 °F 1011.7 in WSW 9.5 mph 9.5 mph 53 % 0.0 in
19:13 27.8 °F 17.7 °F 1011.7 in SW 3.7 mph 4.2 mph 54 % 0.0 in
19:18 27.7 °F 17.6 °F 1011.7 in West 5.6 mph 5.6 mph 54 % 0.0 in
19:23 27.6 °F 17.4 °F 1011.7 in SSW 7.4 mph 7.4 mph 54 % 0.0 in
19:28 27.5 °F 17.7 °F 1011.7 in West 9.3 mph 9.3 mph 55 % 0.0 in
19:33 27.4 °F 17.6 °F 1011.7 in SSW 3.7 mph   55 % 0.0 in
19:38 27.4 °F 17.6 °F 1011.7 in WSW 6.9 mph 6.9 mph 55 % 0.0 in
19:43 27.3 °F 17.4 °F 1011.7 in SW 3.7 mph   55 % 0.0 in
19:48 27.3 °F 17.4 °F 1011.7 in SW 7.4 mph 7.4 mph 55 % 0.0 in
19:53 27.3 °F 17.4 °F 1011.7 in SW 3.7 mph   55 % 0.0 in
19:58 27.3 °F 17.8 °F 1011.7 in SW 3.9 mph 3.9 mph 56 % 0.0 in
20:03 27.3 °F 17.8 °F 1011.7 in WSW 3.7 mph 3.7 mph 56 % 0.0 in
20:08 27.3 °F 17.8 °F 1011.7 in SW 3.9 mph 3.9 mph 56 % 0.0 in
20:13 27.2 °F 17.7 °F 1011.7 in SW 3.7 mph 3.7 mph 56 % 0.0 in
20:18 27.1 °F 17.6 °F 1011.7 in WSW 5.6 mph 5.6 mph 56 % 0.0 in
20:23 27.0 °F 17.8 °F 1011.7 in SW 3.7 mph 3.7 mph 57 % 0.0 in
20:33 26.9 °F 18.2 °F 1011.7 in West 3.7 mph   59 % 0.0 in
20:38 26.8 °F 18.1 °F 1011.7 in SW 3.7 mph 3.7 mph 59 % 0.0 in
20:43 26.7 °F 18.0 °F 1011.7 in SW 3.7 mph 3.7 mph 59 % 0.0 in
20:48 26.7 °F 18.0 °F 1011.7 in SW 3.7 mph 3.7 mph 59 % 0.0 in
20:53 26.6 °F 17.9 °F 1011.7 in Calm     59 % 0.0 in
20:58 26.6 °F 18.2 °F 1011.7 in West 1.9 mph 1.9 mph 60 % 0.0 in
21:03 26.6 °F 18.2 °F 1011.7 in NNE 3.7 mph 3.7 mph 60 % 0.0 in
21:08 26.5 °F 18.1 °F 1011.7 in NNE 1.9 mph   60 % 0.0 in
21:13 26.5 °F 18.1 °F 1010.7 in NNW 3.7 mph 3.7 mph 60 % 0.0 in
21:18 26.5 °F 18.1 °F 1010.7 in WNW 1.9 mph 1.9 mph 60 % 0.0 in
21:23 26.5 °F 18.4 °F 1010.7 in North 1.9 mph   61 % 0.0 in
21:28 26.5 °F 18.1 °F 1011.7 in West 1.9 mph   60 % 0.0 in
21:33 26.4 °F 18.0 °F 1011.7 in SW 3.7 mph 3.7 mph 60 % 0.0 in
21:38 26.4 °F 18.3 °F 1011.7 in SW 1.9 mph 1.9 mph 61 % 0.0 in
21:43 26.3 °F 18.2 °F 1011.7 in Calm     61 % 0.0 in
21:48 26.3 °F 18.2 °F 1011.7 in SW 1.9 mph   61 % 0.0 in
21:53 26.2 °F 18.1 °F 1011.7 in SW 3.7 mph 3.7 mph 61 % 0.0 in
21:58 26.1 °F 18.0 °F 1011.7 in SW 1.9 mph 1.9 mph 61 % 0.0 in
22:03 26.1 °F 18.2 °F 1011.7 in Calm     62 % 0.0 in
22:08 26.1 °F 18.2 °F 1011.7 in Calm     62 % 0.0 in
22:13 26.1 °F 18.2 °F 1011.7 in Calm     62 % 0.0 in
22:18 26.1 °F 18.2 °F 1011.7 in NE 3.7 mph 3.7 mph 62 % 0.0 in
22:23 26.1 °F 18.2 °F 1011.7 in Calm     62 % 0.0 in
22:28 26.2 °F 18.3 °F 1010.7 in Calm     62 % 0.0 in
22:33 26.2 °F 18.3 °F 1010.7 in East 1.9 mph   62 % 0.0 in
22:38 26.3 °F 18.4 °F 1010.7 in ENE 1.9 mph   62 % 0.0 in
22:43 26.1 °F 18.2 °F 1011.7 in SW 3.7 mph 3.7 mph 62 % 0.0 in
22:48 25.9 °F 18.1 °F 1011.7 in SW 3.9 mph 3.9 mph 62 % 0.0 in
22:53 25.8 °F 18.2 °F 1011.7 in SW 1.9 mph 1.9 mph 63 % 0.0 in
22:58 25.8 °F 18.2 °F 1010.7 in SW 1.9 mph 1.9 mph 63 % 0.0 in
23:03 25.8 °F 18.2 °F 1010.7 in SW 3.7 mph 3.7 mph 63 % 0.0 in
23:08 25.8 °F 18.2 °F 1010.7 in SW 3.7 mph 3.7 mph 63 % 0.0 in
23:13 25.8 °F 18.2 °F 1011.7 in SW 3.7 mph 3.7 mph 63 % 0.0 in
23:18 25.7 °F 18.4 °F 1011.7 in SW 3.7 mph 3.7 mph 64 % 0.0 in
23:23 25.6 °F 18.3 °F 1011.7 in WSW 3.7 mph 3.7 mph 64 % 0.0 in
23:28 25.6 °F 18.3 °F 1011.7 in WSW 3.9 mph 3.9 mph 64 % 0.0 in
23:33 25.6 °F 18.3 °F 1011.7 in WSW 2.6 mph 2.6 mph 64 % 0.0 in
23:38 25.6 °F 18.3 °F 1011.7 in WSW 3.7 mph 3.7 mph 64 % 0.0 in
23:43 25.6 °F 18.3 °F 1011.7 in SW 3.7 mph 3.7 mph 64 % 0.0 in
23:45 23.1 °F 18.6 °F 1011.7 in SW 3.2 mph 4.8 mph 76 % 0.0 in
23:48 25.5 °F 18.2 °F 1011.7 in SW 4.7 mph 4.7 mph 64 % 0.0 in
23:53 25.4 °F 18.1 °F 1011.7 in WSW 5.6 mph 5.6 mph 64 % 0.0 in
23:55 23.2 °F 18.7 °F 1011.7 in WSW 3.2 mph 6.4 mph 76 % 0.0 in
23:58 25.5 °F 18.2 °F 1012.8 in SW 3.7 mph 3.7 mph 64 % 0.0 in
Meteo Sesrovires
Elogis d' Weather Underground - 1.5 mb

Guio original per  Jim McMurry - jmcmurry@mwt.net Adaptat per a la plantilla per  Wim van der Kuil - Leuven-Template.eu

Trobareu la nostra informacio del temps tambe a:

Weather Underground

AWEKAS